createdAt,value
2023-05-21T00:01:16.607Z,19.06
2023-05-21T00:05:32.869Z,18.98
2023-05-21T00:09:49.102Z,19.06
2023-05-21T00:14:05.641Z,19.05
2023-05-21T00:18:22.452Z,19.07
2023-05-21T00:22:38.788Z,19.15
2023-05-21T00:26:55.072Z,19.19
2023-05-21T00:31:11.363Z,19.09
2023-05-21T00:35:27.655Z,18.73
2023-05-21T00:39:43.852Z,18.80
2023-05-21T00:44:00.584Z,18.66
2023-05-21T00:48:16.873Z,18.68
2023-05-21T00:52:33.595Z,18.42
2023-05-21T00:56:50.989Z,18.45
2023-05-21T01:01:07.372Z,18.52
2023-05-21T01:05:23.687Z,18.37
2023-05-21T01:09:41.268Z,18.34
2023-05-21T01:13:57.594Z,18.51
2023-05-21T01:18:14.721Z,18.41
2023-05-21T01:22:32.681Z,18.46
2023-05-21T01:26:49.821Z,18.15
2023-05-21T01:31:15.693Z,18.14
2023-05-21T01:35:39.514Z,18.26
2023-05-21T01:40:00.348Z,18.15
2023-05-21T01:44:18.643Z,18.22
2023-05-21T01:48:35.278Z,18.20
2023-05-21T01:52:57.231Z,18.10
2023-05-21T01:57:13.839Z,18.01
2023-05-21T02:01:30.570Z,18.04
2023-05-21T02:05:47.538Z,18.11
2023-05-21T02:10:04.186Z,18.00
2023-05-21T02:14:20.771Z,17.90
2023-05-21T02:18:37.146Z,18.02
2023-05-21T02:22:53.373Z,18.05
2023-05-21T02:27:10.840Z,17.93
2023-05-21T02:31:27.120Z,17.91
2023-05-21T02:35:44.201Z,17.73
2023-05-21T02:40:01.438Z,17.83
2023-05-21T02:44:19.508Z,17.90
2023-05-21T02:48:35.969Z,17.93
2023-05-21T02:52:52.605Z,17.93
2023-05-21T02:57:08.826Z,17.86
2023-05-21T03:01:25.126Z,17.74
2023-05-21T03:05:41.638Z,17.79
2023-05-21T03:09:57.933Z,17.83
2023-05-21T03:14:14.808Z,17.88
2023-05-21T03:18:31.013Z,17.80
2023-05-21T03:22:48.472Z,17.68
2023-05-21T03:27:06.766Z,17.77
2023-05-21T03:31:26.940Z,17.83
2023-05-21T03:35:43.443Z,17.75
2023-05-21T03:39:59.741Z,17.81
2023-05-21T03:44:15.942Z,17.89
2023-05-21T03:48:32.566Z,17.81
2023-05-21T03:52:48.833Z,17.75
2023-05-21T03:57:05.199Z,17.82
2023-05-21T04:01:21.667Z,17.82
2023-05-21T04:05:38.186Z,17.92
2023-05-21T04:09:54.547Z,17.90
2023-05-21T04:14:10.903Z,18.09
2023-05-21T04:18:27.280Z,17.93
2023-05-21T04:22:44.075Z,17.96
2023-05-21T04:27:01.763Z,18.17
2023-05-21T04:31:18.195Z,18.30
2023-05-21T04:35:35.719Z,18.09
2023-05-21T04:39:52.255Z,18.01
2023-05-21T04:44:09.406Z,18.15
2023-05-21T04:48:27.672Z,18.39
2023-05-21T04:52:45.822Z,18.62
2023-05-21T04:57:03.165Z,18.70
2023-05-21T05:01:19.584Z,18.86
2023-05-21T05:05:36.032Z,18.79
2023-05-21T05:09:52.484Z,19.02
2023-05-21T05:14:08.888Z,19.31
2023-05-21T05:18:25.052Z,19.72
2023-05-21T05:22:41.427Z,19.76
2023-05-21T05:26:57.681Z,20.09
2023-05-21T05:31:14.242Z,20.33
2023-05-21T05:39:46.441Z,20.36
2023-05-21T05:44:02.562Z,20.61
2023-05-21T05:48:18.724Z,21.23
2023-05-21T05:52:34.863Z,21.24
2023-05-21T05:56:51.013Z,21.48
2023-05-21T06:01:07.347Z,21.75
2023-05-21T06:05:23.609Z,22.08
2023-05-21T06:09:39.884Z,21.67
2023-05-21T06:13:56.295Z,22.08
2023-05-21T06:18:12.548Z,22.03
2023-05-21T06:22:28.787Z,22.30
2023-05-21T06:26:44.999Z,22.42
2023-05-21T06:31:01.249Z,22.71
2023-05-21T06:35:17.505Z,22.66
2023-05-21T06:39:33.759Z,23.02
2023-05-21T06:43:49.979Z,23.35
2023-05-21T06:48:06.636Z,23.06
2023-05-21T06:52:22.824Z,23.04
2023-05-21T06:56:40.565Z,23.50
2023-05-21T07:00:57.671Z,23.45
2023-05-21T07:05:13.968Z,23.76
2023-05-21T07:09:30.339Z,23.86
2023-05-21T07:13:46.604Z,23.44
2023-05-21T07:18:03.769Z,23.71
2023-05-21T07:22:20.014Z,23.87
2023-05-21T07:26:36.365Z,23.65
2023-05-21T07:30:52.611Z,23.54
2023-05-21T07:35:09.117Z,24.28
2023-05-21T07:39:25.309Z,24.47
2023-05-21T07:43:41.525Z,24.56
2023-05-21T07:47:57.797Z,24.99
2023-05-21T07:52:13.960Z,25.04
2023-05-21T07:56:30.269Z,24.69
2023-05-21T08:00:47.750Z,25.04
2023-05-21T08:05:04.226Z,25.03
2023-05-21T08:09:20.435Z,24.93
2023-05-21T08:13:36.796Z,25.06
2023-05-21T08:17:53.021Z,25.21
2023-05-21T08:22:09.366Z,25.70
2023-05-21T08:26:25.877Z,25.31
2023-05-21T08:30:42.122Z,25.90
2023-05-21T08:34:58.398Z,25.75
2023-05-21T08:39:14.630Z,25.97
2023-05-21T08:43:31.072Z,26.02
2023-05-21T08:47:47.952Z,26.04
2023-05-21T08:52:05.087Z,25.92
2023-05-21T08:56:21.410Z,26.01
2023-05-21T09:00:37.858Z,26.28
2023-05-21T09:05:00.162Z,26.09
2023-05-21T09:09:33.306Z,26.26
2023-05-21T09:13:51.042Z,26.26
2023-05-21T09:18:07.294Z,26.99
2023-05-21T09:22:24.721Z,27.15
2023-05-21T09:26:44.337Z,26.88
2023-05-21T09:31:03.590Z,26.78
2023-05-21T09:35:22.948Z,27.01
2023-05-21T09:39:40.345Z,27.52
2023-05-21T09:44:01.248Z,27.63
2023-05-21T09:48:17.440Z,27.70
2023-05-21T09:52:36.268Z,28.22
2023-05-21T09:56:53.820Z,28.64
2023-05-21T10:01:15.777Z,28.13
2023-05-21T10:05:32.796Z,27.70
2023-05-21T10:09:51.184Z,28.00
2023-05-21T10:14:16.640Z,28.51
2023-05-21T10:18:33.756Z,28.67
2023-05-21T10:22:50.759Z,28.86
2023-05-21T10:27:07.700Z,28.80
2023-05-21T10:31:25.040Z,28.92
2023-05-21T10:35:41.483Z,29.00
2023-05-21T10:39:57.853Z,28.84
2023-05-21T10:44:58.416Z,28.62
2023-05-21T10:49:51.697Z,29.24
2023-05-21T10:54:31.912Z,29.34
2023-05-21T10:59:26.028Z,29.18
2023-05-21T11:03:42.461Z,28.53
2023-05-21T11:07:59.286Z,28.89
2023-05-21T11:12:15.587Z,28.98
2023-05-21T11:16:31.857Z,29.05
2023-05-21T11:20:51.958Z,29.61
2023-05-21T11:25:08.505Z,29.52
2023-05-21T11:29:40.459Z,29.74
2023-05-21T11:34:28.478Z,29.82
2023-05-21T11:39:04.970Z,29.92
2023-05-21T11:43:21.814Z,30.30
2023-05-21T11:47:38.068Z,30.44
2023-05-21T11:51:54.205Z,30.23
2023-05-21T11:56:12.330Z,30.54
2023-05-21T12:00:28.623Z,30.64
2023-05-21T12:04:46.608Z,30.25
2023-05-21T12:09:04.638Z,30.22
2023-05-21T12:13:22.654Z,30.56
2023-05-21T12:17:39.447Z,30.32
2023-05-21T12:21:56.304Z,30.73
2023-05-21T12:26:12.643Z,31.13
2023-05-21T12:30:29.167Z,31.04
2023-05-21T12:34:47.442Z,30.88
2023-05-21T12:39:03.780Z,31.22
2023-05-21T12:43:20.356Z,31.87
2023-05-21T12:47:37.156Z,31.68
2023-05-21T12:51:56.577Z,31.64
2023-05-21T12:56:13.749Z,31.17
2023-05-21T13:00:30.034Z,31.98
2023-05-21T13:04:46.766Z,31.68
2023-05-21T13:09:03.031Z,31.79
2023-05-21T13:13:19.438Z,31.88
2023-05-21T13:17:36.119Z,32.15
2023-05-21T13:21:52.323Z,32.23
2023-05-21T13:26:09.982Z,32.22
2023-05-21T13:30:26.326Z,31.86
2023-05-21T13:34:42.468Z,32.34
2023-05-21T13:38:58.820Z,32.14
2023-05-21T13:43:15.031Z,32.04
2023-05-21T13:47:32.513Z,32.47
2023-05-21T13:51:48.821Z,32.55
2023-05-21T13:56:05.852Z,32.32
2023-05-21T14:00:22.293Z,31.95
2023-05-21T14:04:39.546Z,31.64
2023-05-21T14:08:56.026Z,31.87
2023-05-21T14:13:19.553Z,32.35
2023-05-21T14:17:36.567Z,32.80
2023-05-21T14:21:53.010Z,33.10
2023-05-21T14:26:09.229Z,33.89
2023-05-21T14:30:25.534Z,33.62
2023-05-21T14:34:41.753Z,33.60
2023-05-21T14:38:57.965Z,33.72
2023-05-21T14:43:14.282Z,33.80
2023-05-21T14:47:30.657Z,33.60
2023-05-21T14:51:47.785Z,33.57
2023-05-21T14:56:04.183Z,32.50
2023-05-21T15:00:20.586Z,32.65
2023-05-21T15:04:36.713Z,32.89
2023-05-21T15:08:53.627Z,32.75
2023-05-21T15:13:10.039Z,32.22
2023-05-21T15:17:26.332Z,32.67
2023-05-21T15:21:42.529Z,33.16
2023-05-21T15:25:58.813Z,33.40
2023-05-21T15:30:15.083Z,33.20
2023-05-21T15:34:32.026Z,33.09
2023-05-21T15:38:48.315Z,32.97
2023-05-21T15:43:04.629Z,33.08
2023-05-21T15:47:20.968Z,33.36
2023-05-21T15:51:37.357Z,33.18
2023-05-21T15:55:53.665Z,32.91
2023-05-21T16:00:11.139Z,33.06
2023-05-21T16:04:27.393Z,32.89
2023-05-21T16:08:43.704Z,32.92
2023-05-21T16:13:00.302Z,32.55
2023-05-21T16:17:17.005Z,32.80
2023-05-21T16:21:33.983Z,32.78
2023-05-21T16:25:50.578Z,32.52
2023-05-21T16:30:07.795Z,32.17
2023-05-21T16:34:24.148Z,31.83
2023-05-21T16:38:40.478Z,31.39
2023-05-21T16:42:56.673Z,31.55
2023-05-21T16:47:12.798Z,31.42
2023-05-21T16:51:29.082Z,31.31
2023-05-21T16:55:45.336Z,31.31
2023-05-21T17:00:04.375Z,31.24
2023-05-21T17:04:20.636Z,30.90
2023-05-21T17:08:37.010Z,30.74
2023-05-21T17:12:53.738Z,30.73
2023-05-21T17:17:09.987Z,30.39
2023-05-21T17:21:26.930Z,30.26
2023-05-21T17:25:43.289Z,29.96
2023-05-21T17:29:59.702Z,29.82
2023-05-21T17:34:16.852Z,29.57
2023-05-21T17:38:33.456Z,29.29
2023-05-21T17:42:49.643Z,29.06
2023-05-21T17:47:06.967Z,28.71
2023-05-21T17:51:23.324Z,28.38
2023-05-21T17:55:40.104Z,28.19
2023-05-21T17:59:56.448Z,27.84
2023-05-21T18:04:13.404Z,27.50
2023-05-21T18:08:29.708Z,27.11
2023-05-21T18:12:46.619Z,26.86
2023-05-21T18:17:02.911Z,26.59
2023-05-21T18:21:19.336Z,26.17
2023-05-21T18:25:36.066Z,26.01
2023-05-21T18:29:52.559Z,25.75
2023-05-21T18:34:08.831Z,25.56
2023-05-21T18:38:25.183Z,25.16
2023-05-21T18:42:41.790Z,24.84
2023-05-21T18:46:58.697Z,24.83
2023-05-21T18:51:14.999Z,24.58
2023-05-21T18:55:31.205Z,24.54
2023-05-21T18:59:47.409Z,24.46
2023-05-21T19:04:03.695Z,24.29
2023-05-21T19:08:19.870Z,24.12
2023-05-21T19:12:36.540Z,23.75
2023-05-21T19:16:53.193Z,23.64
2023-05-21T19:21:09.583Z,23.72
2023-05-21T19:25:25.877Z,23.53
2023-05-21T19:29:42.320Z,23.39
2023-05-21T19:33:58.607Z,23.16
2023-05-21T19:38:16.126Z,23.15
2023-05-21T19:42:32.285Z,22.93
2023-05-21T19:46:50.131Z,22.67
2023-05-21T19:51:06.475Z,22.46
2023-05-21T19:55:23.013Z,22.48
2023-05-21T19:59:39.199Z,22.05
2023-05-21T20:03:55.786Z,22.40
2023-05-21T20:08:13.490Z,22.18
2023-05-21T20:12:29.896Z,22.09
2023-05-21T20:16:47.398Z,21.98
2023-05-21T20:21:06.562Z,21.85
2023-05-21T20:25:22.962Z,21.82
2023-05-21T20:29:39.292Z,21.76
2023-05-21T20:33:55.588Z,21.59
2023-05-21T20:38:12.744Z,21.59
2023-05-21T20:42:34.327Z,21.39
2023-05-21T20:46:50.766Z,21.52
2023-05-21T20:51:07.104Z,21.46
2023-05-21T20:55:23.301Z,21.24
2023-05-21T20:59:39.477Z,21.14
2023-05-21T21:03:55.831Z,21.22
2023-05-21T21:08:12.426Z,21.22
2023-05-21T21:12:28.824Z,21.09
2023-05-21T21:16:45.268Z,21.24
2023-05-21T21:21:01.636Z,21.04
2023-05-21T21:25:17.971Z,20.88
2023-05-21T21:29:34.254Z,20.97
2023-05-21T21:33:50.611Z,20.72
2023-05-21T21:38:06.895Z,20.69
2023-05-21T21:42:23.187Z,20.67
2023-05-21T21:46:39.724Z,20.36
2023-05-21T21:50:55.994Z,20.67
2023-05-21T21:55:12.668Z,20.59
2023-05-21T21:59:29.476Z,20.83
2023-05-21T22:03:45.964Z,20.78
2023-05-21T22:08:03.756Z,20.62
2023-05-21T22:12:19.980Z,20.49
2023-05-21T22:16:36.735Z,20.27
2023-05-21T22:20:53.021Z,20.39
2023-05-21T22:25:09.584Z,20.16
2023-05-21T22:29:25.885Z,20.00
2023-05-21T22:33:42.299Z,20.06
2023-05-21T22:37:58.962Z,19.95
2023-05-21T22:42:15.236Z,20.07
2023-05-21T22:46:32.233Z,20.10
2023-05-21T22:50:50.330Z,20.13
2023-05-21T22:55:06.976Z,19.99
2023-05-21T22:59:23.232Z,20.06
2023-05-21T23:03:39.468Z,19.87
2023-05-21T23:07:55.902Z,20.08
2023-05-21T23:12:12.376Z,20.18
2023-05-21T23:16:30.989Z,20.00
2023-05-21T23:20:47.300Z,20.00
2023-05-21T23:25:04.109Z,19.89
2023-05-21T23:29:20.306Z,19.94
2023-05-21T23:33:36.625Z,19.63
2023-05-21T23:37:52.805Z,19.83
2023-05-21T23:42:09.146Z,19.76
2023-05-21T23:46:25.297Z,19.78
2023-05-21T23:50:41.717Z,19.85
2023-05-21T23:54:58.191Z,19.87
2023-05-21T23:59:16.873Z,19.73
